Terminal Aerodrome Forecast
Issued by NWS

Home | Current Version | Previous Version | Text Only | Print | Product List | Glossary On
Versions: 1 2 3 4 5 6 7 8 9 10 11 12 13 14 15 16 17
000
FTUS43 KGRR 212011 AAA
TAFAZO
TAF AMD
KAZO 212011Z 2120/2218 VRB05KT P6SM FEW028
     FM220000 26005KT P6SM SCT050 BKN120 BKN250
     FM220500 19007KT P6SM VCTS BKN050CB WS020/23040KT
     FM220800 19008KT 2SM +TSRA BR OVC035CB WS020/23040KT
     FM220900 19010KT 3SM -TSRA BR OVC028CB
     FM221100 23011KT 4SM -SHRA VCTS OVC035CB
     FM221400 27010KT P6SM OVC008=

USA.gov is the U.S. government's official web portal to all federal, state and local government web resources and services.